createdAt,value
2019-01-26T00:01:29.737Z,15.03
2019-01-26T00:04:33.278Z,16.17
2019-01-26T00:07:37.103Z,15.37
2019-01-26T00:10:40.656Z,14.87
2019-01-26T00:13:44.220Z,15.17
2019-01-26T00:16:47.871Z,14.27
2019-01-26T00:19:51.743Z,14.67
2019-01-26T00:22:55.644Z,14.10
2019-01-26T00:25:59.219Z,14.43
2019-01-26T00:29:02.797Z,13.93
2019-01-26T00:32:06.522Z,14.80
2019-01-26T00:35:10.259Z,13.77
2019-01-26T00:38:14.166Z,13.80
2019-01-26T00:41:17.735Z,13.47
2019-01-26T00:44:21.329Z,13.33
2019-01-26T00:47:25.224Z,13.47
2019-01-26T00:50:29.119Z,13.83
2019-01-26T00:53:32.682Z,12.77
2019-01-26T00:56:36.260Z,12.93
2019-01-26T00:59:39.817Z,12.73
2019-01-26T01:02:43.374Z,12.07
2019-01-26T01:05:46.937Z,12.90
2019-01-26T01:08:50.558Z,12.60
2019-01-26T01:11:54.122Z,12.17
2019-01-26T01:14:57.681Z,12.20
2019-01-26T01:18:01.242Z,12.00
2019-01-26T01:21:04.894Z,11.63
2019-01-26T01:24:08.514Z,12.60
2019-01-26T01:27:12.086Z,12.43
2019-01-26T01:30:18.155Z,12.33
2019-01-26T01:33:22.038Z,11.73
2019-01-26T01:36:25.607Z,11.53
2019-01-26T01:39:29.216Z,11.73
2019-01-26T01:42:32.797Z,12.00
2019-01-26T01:45:36.417Z,11.47
2019-01-26T01:48:40.058Z,11.00
2019-01-26T01:51:43.971Z,11.60
2019-01-26T01:54:47.807Z,11.03
2019-01-26T01:57:51.451Z,11.07
2019-01-26T02:00:55.318Z,10.77
2019-01-26T02:03:58.887Z,11.10
2019-01-26T02:07:02.790Z,11.30
2019-01-26T02:10:08.086Z,10.30
2019-01-26T02:13:11.669Z,10.30
2019-01-26T02:16:15.215Z,10.17
2019-01-26T02:19:19.074Z,10.20
2019-01-26T02:22:22.638Z,9.27
2019-01-26T02:25:26.293Z,10.27
2019-01-26T02:28:29.861Z,10.10
2019-01-26T02:31:33.716Z,8.93
2019-01-26T02:34:37.600Z,9.90
2019-01-26T02:37:41.170Z,9.23
2019-01-26T02:40:44.728Z,9.57
2019-01-26T02:43:48.602Z,9.40
2019-01-26T02:46:57.891Z,9.17
2019-01-26T02:49:57.718Z,8.50
2019-01-26T02:53:01.889Z,8.97
2019-01-26T02:56:05.700Z,8.87
2019-01-26T02:59:09.272Z,9.13
2019-01-26T03:02:13.117Z,8.57
2019-01-26T03:05:16.674Z,7.97
2019-01-26T03:08:20.233Z,8.70
2019-01-26T03:11:23.856Z,8.57
2019-01-26T03:14:27.428Z,8.27
2019-01-26T03:17:30.982Z,8.50
2019-01-26T03:20:34.549Z,8.30
2019-01-26T03:23:38.597Z,8.00
2019-01-26T03:26:42.154Z,7.90
2019-01-26T03:29:45.824Z,7.73
2019-01-26T03:32:49.638Z,8.63
2019-01-26T03:35:53.784Z,7.90
2019-01-26T03:38:57.351Z,8.27
2019-01-26T03:42:01.110Z,7.90
2019-01-26T03:45:05.983Z,7.30
2019-01-26T03:48:09.944Z,7.47
2019-01-26T03:51:13.496Z,7.73
2019-01-26T03:54:17.101Z,7.63
2019-01-26T03:57:20.645Z,7.07
2019-01-26T04:00:26.329Z,7.63
2019-01-26T04:03:30.423Z,7.43
2019-01-26T04:06:34.058Z,7.70
2019-01-26T04:09:37.633Z,8.10
2019-01-26T04:12:41.588Z,7.10
2019-01-26T04:15:45.154Z,6.70
2019-01-26T04:18:48.885Z,6.87
2019-01-26T04:21:52.889Z,6.90
2019-01-26T04:24:56.434Z,6.83
2019-01-26T04:28:00.349Z,6.83
2019-01-26T04:31:04.006Z,5.97
2019-01-26T04:34:08.068Z,6.60
2019-01-26T04:37:11.960Z,6.73
2019-01-26T04:40:17.228Z,6.87
2019-01-26T04:43:21.024Z,6.47
2019-01-26T04:46:24.595Z,5.87
2019-01-26T04:49:28.152Z,6.27
2019-01-26T04:52:32.284Z,5.90
2019-01-26T04:55:35.853Z,6.57
2019-01-26T04:58:39.416Z,6.77
2019-01-26T05:01:42.986Z,6.40
2019-01-26T05:04:46.544Z,5.97
2019-01-26T05:07:50.595Z,5.63
2019-01-26T05:10:54.531Z,4.83
2019-01-26T05:13:58.669Z,5.50
2019-01-26T05:17:02.484Z,4.83
2019-01-26T05:20:09.338Z,4.90
2019-01-26T05:23:12.947Z,5.23
2019-01-26T05:26:16.499Z,5.10
2019-01-26T05:29:20.375Z,5.10
2019-01-26T05:32:24.260Z,4.93
2019-01-26T05:35:27.802Z,5.00
2019-01-26T05:38:31.349Z,4.90
2019-01-26T05:41:34.928Z,4.73
2019-01-26T05:44:38.884Z,4.40
2019-01-26T05:47:47.995Z,4.77
2019-01-26T05:50:47.937Z,4.93
2019-01-26T05:53:51.520Z,4.30
2019-01-26T05:56:55.078Z,4.40
2019-01-26T05:59:58.628Z,4.30
2019-01-26T06:03:02.570Z,3.90
2019-01-26T06:06:06.114Z,4.60
2019-01-26T06:09:09.741Z,3.87
2019-01-26T06:12:13.675Z,3.60
2019-01-26T06:15:17.331Z,4.13
2019-01-26T06:18:20.909Z,3.80
2019-01-26T06:21:24.443Z,4.00
2019-01-26T06:24:28.421Z,3.77
2019-01-26T06:27:32.208Z,3.67
2019-01-26T06:30:36.528Z,3.63
2019-01-26T06:33:40.094Z,3.43
2019-01-26T06:36:43.643Z,3.73
2019-01-26T06:39:47.196Z,3.50
2019-01-26T06:42:51.196Z,3.80
2019-01-26T06:45:54.848Z,3.63
2019-01-26T06:48:59.995Z,3.40
2019-01-26T06:52:03.808Z,3.40
2019-01-26T06:55:08.883Z,3.23
2019-01-26T06:58:12.503Z,3.57
2019-01-26T07:01:16.364Z,3.90
2019-01-26T07:04:30.509Z,3.30
2019-01-26T07:07:34.048Z,3.53
2019-01-26T07:10:37.926Z,3.10
2019-01-26T07:13:41.736Z,3.20
2019-01-26T07:16:45.281Z,2.93
2019-01-26T07:19:48.837Z,3.20
2019-01-26T07:22:52.462Z,3.13
2019-01-26T07:25:56.279Z,3.10
2019-01-26T07:29:00.258Z,3.03
2019-01-26T07:32:03.868Z,2.93
2019-01-26T07:35:07.987Z,3.00
2019-01-26T07:38:13.764Z,3.00
2019-01-26T07:41:16.840Z,2.90
2019-01-26T07:44:20.399Z,2.77
2019-01-26T07:47:23.946Z,3.80
2019-01-26T07:50:27.604Z,3.23
2019-01-26T07:53:31.476Z,2.93
2019-01-26T07:56:35.101Z,10.37
2019-01-26T07:59:38.973Z,17.50
2019-01-26T08:02:42.887Z,11.23
2019-01-26T08:05:46.544Z,11.40
2019-01-26T08:08:50.400Z,10.77
2019-01-26T08:11:54.062Z,10.67
2019-01-26T08:14:57.977Z,10.80
2019-01-26T08:18:01.545Z,16.50
2019-01-26T08:21:05.533Z,10.87
2019-01-26T08:24:09.133Z,10.60
2019-01-26T08:27:12.796Z,8.17
2019-01-26T08:30:18.705Z,7.10
2019-01-26T08:33:22.429Z,6.30
2019-01-26T08:36:26.231Z,5.73
2019-01-26T08:39:29.903Z,5.30
2019-01-26T08:42:33.480Z,5.23
2019-01-26T08:45:37.151Z,4.60
2019-01-26T08:48:40.781Z,4.80
2019-01-26T08:51:46.919Z,4.73
2019-01-26T08:54:50.561Z,5.07
2019-01-26T08:57:54.341Z,4.57
2019-01-26T09:00:57.937Z,4.43
2019-01-26T09:04:15.349Z,3.73
2019-01-26T09:07:19.010Z,4.27
2019-01-26T09:10:22.652Z,4.17
2019-01-26T09:13:26.448Z,4.00
2019-01-26T09:16:30.005Z,3.47
2019-01-26T09:19:33.689Z,4.00
2019-01-26T09:22:37.348Z,3.30
2019-01-26T09:25:41.260Z,3.43
2019-01-26T09:28:44.868Z,3.67
2019-01-26T09:31:48.494Z,3.30
2019-01-26T09:34:52.075Z,3.50
2019-01-26T09:37:56.997Z,3.80
2019-01-26T09:41:00.625Z,3.50
2019-01-26T09:44:04.651Z,3.70
2019-01-26T09:47:08.196Z,3.13
2019-01-26T09:50:11.932Z,3.07
2019-01-26T09:53:15.532Z,3.33
2019-01-26T09:56:19.184Z,3.20
2019-01-26T09:59:23.093Z,3.47
2019-01-26T10:02:26.653Z,3.00
2019-01-26T10:05:30.584Z,2.97
2019-01-26T10:08:34.381Z,3.10
2019-01-26T10:11:37.965Z,3.03
2019-01-26T10:14:42.116Z,2.87
2019-01-26T10:17:46.337Z,3.33
2019-01-26T10:20:49.909Z,3.10
2019-01-26T10:23:53.847Z,3.00
2019-01-26T10:26:57.653Z,3.00
2019-01-26T10:30:01.487Z,2.83
2019-01-26T10:33:05.707Z,2.80
2019-01-26T10:36:28.296Z,2.73
2019-01-26T10:39:31.852Z,2.70
2019-01-26T10:42:36.115Z,4.70
2019-01-26T10:45:39.753Z,4.93
2019-01-26T10:48:43.619Z,4.17
2019-01-26T10:51:47.327Z,4.80
2019-01-26T10:54:51.526Z,5.30
2019-01-26T10:57:55.600Z,4.97
2019-01-26T11:00:59.188Z,5.13
2019-01-26T11:04:03.074Z,5.30
2019-01-26T11:07:06.692Z,4.60
2019-01-26T11:10:11.323Z,3.90
2019-01-26T11:13:14.866Z,3.97
2019-01-26T11:16:18.428Z,3.33
2019-01-26T11:19:22.040Z,3.40
2019-01-26T11:22:25.636Z,2.77
2019-01-26T11:25:29.231Z,2.67
2019-01-26T11:28:32.779Z,3.40
2019-01-26T11:31:36.833Z,4.30
2019-01-26T11:34:42.119Z,5.80
2019-01-26T11:37:45.669Z,3.30
2019-01-26T11:40:49.632Z,3.17
2019-01-26T11:43:53.488Z,2.73
2019-01-26T11:47:00.393Z,3.00
2019-01-26T11:50:05.097Z,2.67
2019-01-26T11:53:08.980Z,2.57
2019-01-26T11:56:31.655Z,2.50
2019-01-26T11:59:35.439Z,2.27
2019-01-26T12:02:47.686Z,2.50
2019-01-26T12:05:55.387Z,2.40
2019-01-26T12:08:59.386Z,1.90
2019-01-26T12:12:02.944Z,2.03
2019-01-26T12:15:09.881Z,2.40
2019-01-26T12:18:14.063Z,2.47
2019-01-26T12:21:17.620Z,2.30
2019-01-26T12:24:21.163Z,2.10
2019-01-26T12:27:24.943Z,2.20
2019-01-26T12:30:28.483Z,2.40
2019-01-26T12:33:32.034Z,2.30
2019-01-26T12:36:35.583Z,1.90
2019-01-26T12:39:39.130Z,2.30
2019-01-26T12:42:42.686Z,2.10
2019-01-26T12:45:46.531Z,2.40
2019-01-26T12:48:50.083Z,2.00
2019-01-26T12:51:53.633Z,2.23
2019-01-26T12:54:57.176Z,1.87
2019-01-26T12:58:01.123Z,2.30
2019-01-26T13:01:06.020Z,1.97
2019-01-26T13:04:09.582Z,2.00
2019-01-26T13:07:13.144Z,1.97
2019-01-26T13:10:19.898Z,2.00
2019-01-26T13:13:23.836Z,2.30
2019-01-26T13:16:27.424Z,1.90
2019-01-26T13:19:36.798Z,1.93
2019-01-26T13:22:36.247Z,1.93
2019-01-26T13:25:40.118Z,1.70
2019-01-26T13:28:43.685Z,1.83
2019-01-26T13:31:47.476Z,1.70
2019-01-26T13:34:51.028Z,1.80
2019-01-26T13:37:54.586Z,1.60
2019-01-26T13:40:58.123Z,1.87
2019-01-26T13:44:01.682Z,1.53
2019-01-26T13:47:05.682Z,1.97
2019-01-26T13:50:09.636Z,1.70
2019-01-26T13:53:13.584Z,1.70
2019-01-26T13:56:17.123Z,1.60
2019-01-26T13:59:20.679Z,1.50
2019-01-26T14:02:24.292Z,1.63
2019-01-26T14:05:27.926Z,1.60
2019-01-26T14:08:31.471Z,1.60
2019-01-26T14:11:35.067Z,1.50
2019-01-26T14:14:38.922Z,1.90
2019-01-26T14:17:42.843Z,1.60
2019-01-26T14:20:46.391Z,2.10
2019-01-26T14:23:49.939Z,1.53
2019-01-26T14:26:53.869Z,1.67
2019-01-26T14:29:57.528Z,1.63
2019-01-26T14:33:01.206Z,1.50
2019-01-26T14:36:05.119Z,1.80
2019-01-26T14:39:09.807Z,1.70
2019-01-26T14:42:13.350Z,1.80
2019-01-26T14:45:17.542Z,1.60
2019-01-26T14:48:21.287Z,1.47
2019-01-26T14:51:24.858Z,4.20
2019-01-26T14:54:28.770Z,21.10
2019-01-26T14:57:32.426Z,15.23
2019-01-26T15:00:36.252Z,11.17
2019-01-26T15:03:39.813Z,10.97
2019-01-26T15:06:43.395Z,10.00
2019-01-26T15:09:47.317Z,9.47
2019-01-26T15:12:50.997Z,8.57
2019-01-26T15:15:54.556Z,9.20
2019-01-26T15:18:58.125Z,8.57
2019-01-26T15:22:01.934Z,8.07
2019-01-26T15:25:06.624Z,8.10
2019-01-26T15:28:10.580Z,8.13
2019-01-26T15:31:14.170Z,7.73
2019-01-26T15:34:17.878Z,8.03
2019-01-26T15:37:21.570Z,7.90
2019-01-26T15:40:25.515Z,8.67
2019-01-26T15:43:29.241Z,9.43
2019-01-26T15:46:32.818Z,9.47
2019-01-26T15:49:36.763Z,9.37
2019-01-26T15:52:40.701Z,8.13
2019-01-26T15:55:44.467Z,8.63
2019-01-26T15:58:48.345Z,7.83
2019-01-26T16:01:52.019Z,8.10
2019-01-26T16:04:55.569Z,7.50
2019-01-26T16:07:59.523Z,7.53
2019-01-26T16:11:03.072Z,6.63
2019-01-26T16:14:06.809Z,6.53
2019-01-26T16:17:10.768Z,6.80
2019-01-26T16:20:20.209Z,6.70
2019-01-26T16:23:20.329Z,6.60
2019-01-26T16:26:23.921Z,6.10
2019-01-26T16:29:28.076Z,5.80
2019-01-26T16:32:32.169Z,5.97
2019-01-26T16:35:35.760Z,5.60
2019-01-26T16:38:39.577Z,5.40
2019-01-26T16:41:43.170Z,5.20
2019-01-26T16:44:46.834Z,5.87
2019-01-26T16:47:50.489Z,4.90
2019-01-26T16:50:54.131Z,5.20
2019-01-26T16:53:58.240Z,4.43
2019-01-26T16:57:01.867Z,5.23
2019-01-26T17:00:09.318Z,4.50
2019-01-26T17:03:13.239Z,4.33
2019-01-26T17:06:16.819Z,5.57
2019-01-26T17:09:20.550Z,4.60
2019-01-26T17:12:25.038Z,4.90
2019-01-26T17:15:28.847Z,4.50
2019-01-26T17:18:32.467Z,4.57
2019-01-26T17:21:36.591Z,4.17
2019-01-26T17:24:40.528Z,4.20
2019-01-26T17:27:44.709Z,4.13
2019-01-26T17:30:48.312Z,4.57
2019-01-26T17:33:52.472Z,3.83
2019-01-26T17:36:56.079Z,3.87
2019-01-26T17:39:59.618Z,3.83
2019-01-26T17:43:03.186Z,4.03
2019-01-26T17:46:07.206Z,3.70
2019-01-26T17:49:10.756Z,4.07
2019-01-26T17:52:14.379Z,4.10
2019-01-26T17:55:17.924Z,3.77
2019-01-26T17:58:21.990Z,3.60
2019-01-26T18:01:26.138Z,3.93
2019-01-26T18:04:29.688Z,3.70
2019-01-26T18:07:33.298Z,3.67
2019-01-26T18:10:36.897Z,4.00
2019-01-26T18:13:40.504Z,3.63
2019-01-26T18:16:44.152Z,4.27
2019-01-26T18:19:48.059Z,3.80
2019-01-26T18:22:51.633Z,3.30
2019-01-26T18:25:55.282Z,3.27
2019-01-26T18:28:58.808Z,3.53
2019-01-26T18:32:02.658Z,3.10
2019-01-26T18:35:07.465Z,3.40
2019-01-26T18:38:11.077Z,3.23
2019-01-26T18:41:14.625Z,3.33
2019-01-26T18:44:18.176Z,3.30
2019-01-26T18:47:21.722Z,3.00
2019-01-26T18:50:29.780Z,3.00
2019-01-26T18:53:33.328Z,2.93
2019-01-26T18:56:36.874Z,2.90
2019-01-26T18:59:40.508Z,2.77
2019-01-26T19:02:44.492Z,2.93
2019-01-26T19:05:48.047Z,2.80
2019-01-26T19:08:52.267Z,2.93
2019-01-26T19:11:56.122Z,2.70
2019-01-26T19:14:59.673Z,2.63
2019-01-26T19:18:03.209Z,2.70
2019-01-26T19:21:06.833Z,2.63
2019-01-26T19:24:10.401Z,2.53
2019-01-26T19:27:13.949Z,2.93
2019-01-26T19:30:19.478Z,2.50
2019-01-26T19:33:23.019Z,2.47
2019-01-26T19:36:26.777Z,2.80
2019-01-26T19:39:30.477Z,2.63
2019-01-26T19:42:34.128Z,3.00
2019-01-26T19:45:37.913Z,4.07
2019-01-26T19:48:41.636Z,3.47
2019-01-26T19:51:45.321Z,3.00
2019-01-26T19:54:48.909Z,3.20
2019-01-26T19:57:52.712Z,2.83
2019-01-26T20:00:56.605Z,3.07
2019-01-26T20:04:00.227Z,3.33
2019-01-26T20:07:04.436Z,3.40
2019-01-26T20:10:09.336Z,2.97
2019-01-26T20:13:13.403Z,2.83
2019-01-26T20:16:16.980Z,2.90
2019-01-26T20:19:20.553Z,2.50
2019-01-26T20:22:24.136Z,2.40
2019-01-26T20:25:27.687Z,2.90
2019-01-26T20:28:31.701Z,2.63
2019-01-26T20:31:35.608Z,3.00
2019-01-26T20:34:39.581Z,2.40
2019-01-26T20:37:43.276Z,2.53
2019-01-26T20:40:46.831Z,2.53
2019-01-26T20:43:50.468Z,2.80
2019-01-26T20:46:54.363Z,2.77
2019-01-26T20:49:57.913Z,2.77
2019-01-26T20:53:01.543Z,2.73
2019-01-26T20:56:05.709Z,3.27
2019-01-26T20:59:09.417Z,2.40
2019-01-26T21:02:13.035Z,3.00
2019-01-26T21:05:16.751Z,3.00
2019-01-26T21:08:20.814Z,3.00
2019-01-26T21:11:24.637Z,2.90
2019-01-26T21:14:28.182Z,2.87
2019-01-26T21:17:31.894Z,2.67
2019-01-26T21:20:35.749Z,2.77
2019-01-26T21:23:39.516Z,2.50
2019-01-26T21:26:43.829Z,3.13
2019-01-26T21:29:47.645Z,2.27
2019-01-26T21:32:51.277Z,3.20
2019-01-26T21:35:54.856Z,2.37
2019-01-26T21:38:59.248Z,3.00
2019-01-26T21:42:02.972Z,3.03
2019-01-26T21:45:07.273Z,2.80
2019-01-26T21:48:10.827Z,2.67
2019-01-26T21:51:14.446Z,2.80
2019-01-26T21:54:18.023Z,3.30
2019-01-26T21:57:21.578Z,3.10
2019-01-26T22:00:30.441Z,3.27
2019-01-26T22:03:34.320Z,3.90
2019-01-26T22:06:38.166Z,3.60
2019-01-26T22:09:42.040Z,2.70
2019-01-26T22:12:45.903Z,6.20
2019-01-26T22:15:49.537Z,8.40
2019-01-26T22:18:53.113Z,20.13
2019-01-26T22:21:56.793Z,17.63
2019-01-26T22:25:00.679Z,18.37
2019-01-26T22:28:04.409Z,14.53
2019-01-26T22:31:07.954Z,11.03
2019-01-26T22:34:11.830Z,12.80
2019-01-26T22:37:15.526Z,8.27
2019-01-26T22:40:21.855Z,7.93
2019-01-26T22:43:25.904Z,7.40
2019-01-26T22:46:29.764Z,6.57
2019-01-26T22:49:33.325Z,6.43
2019-01-26T22:52:37.024Z,6.03
2019-01-26T22:55:40.586Z,5.77
2019-01-26T22:58:44.216Z,5.70
2019-01-26T23:01:47.916Z,5.23
2019-01-26T23:05:08.156Z,5.80
2019-01-26T23:08:18.725Z,4.63
2019-01-26T23:11:39.692Z,5.00
2019-01-26T23:15:29.420Z,4.73
2019-01-26T23:19:05.807Z,4.23
2019-01-26T23:22:40.860Z,4.53
2019-01-26T23:26:09.935Z,4.43
2019-01-26T23:30:09.120Z,3.80
2019-01-26T23:33:12.731Z,4.00
2019-01-26T23:36:16.926Z,4.10
2019-01-26T23:39:20.477Z,6.47
2019-01-26T23:42:24.644Z,7.50
2019-01-26T23:45:28.278Z,5.13
2019-01-26T23:48:31.900Z,4.90
2019-01-26T23:51:35.696Z,4.93
2019-01-26T23:54:39.265Z,4.80
2019-01-26T23:57:42.803Z,4.77
